Randy Jo — WDH7506 — position and weather

sailwx.info

Track history (hours):
 
Tides and Currents Weather Stations Pressure Air Temp Water Temp Dewpoint Dewpoint Depression Visibility Wind Speed Wind Dir Waves Ship Positions

Randy Jo

Owner: Marrs, Kenneth R, Humble, TX. More information available from US FCC via Universal Licensing System and Coast Guard Vessel Documentation Center.

Last reported at 2018-Jan-25 14:28 UTC. Time now 2018-May-24 07:43 UTC.
Position N 29°35' W 090°38'.
Warning: this ship's position is months out of date.

Length 14 m.

Type: Sailing vessel. MMSI: 367648840.

Date/timePositionNaut miles runAvg speedWind from/ knotsBaromVisibWave heightAir tempDewpointWater temp
2018-Jan-25 14:28N 29°35' W 090°38'3 6.0
2018-Jan-25 13:54N 29°36' W 090°41'1 3.4
2018-Jan-25 13:29N 29°36' W 090°43'0 0.0
2018-Jan-24 19:59N 29°36' W 090°43'1 1.9
2018-Jan-24 19:30N 29°35' W 090°43'2 3.8
2018-Jan-24 19:00N 29°34' W 090°45'  
2018-Jan-20 20:50N 29°47' W 092°09'0 0.0
2018-Jan-20 20:29N 29°47' W 092°09'0 0.0
2018-Jan-20 19:59N 29°47' W 092°09'2 3.6
2018-Jan-20 19:30N 29°47' W 092°11'3 6.0
2018-Jan-20 18:58N 29°48' W 092°15'52 2.1
2018-Jan-19 17:30N 30°00' W 093°14'3 5.0
2018-Jan-19 16:57N 30°02' W 093°15'3 5.8
2018-Jan-19 16:30N 30°05' W 093°17'2 2.9
2018-Jan-19 15:58N 30°06' W 093°18'1 2.3
2018-Jan-19 15:30N 30°06' W 093°19'3 5.9
2018-Jan-19 15:00N 30°09' W 093°20'3 6.0
2018-Jan-19 14:30N 30°11' W 093°18'  
Track history (hours):
 
Tides and Currents Weather Stations Pressure Air Temp Water Temp Dewpoint Dewpoint Depression Visibility Wind Speed Wind Dir Waves Ship Positions

Randy Jo

Owner: Marrs, Kenneth R, Humble, TX. More information available from US FCC via Universal Licensing System and Coast Guard Vessel Documentation Center.

Last reported at 2018-Jan-25 14:28 UTC. Time now 2018-May-24 07:43 UTC.
Position N 29°35' W 090°38'.
Warning: this ship's position is months out of date.

Length 14 m.

Type: Sailing vessel. MMSI: 367648840.

Date/timePositionNaut miles runAvg speedWind from/ knotsBaromVisibWave heightAir tempDewpointWater temp
2018-Jan-25 14:28N 29°35' W 090°38'3 6.0
2018-Jan-25 13:54N 29°36' W 090°41'1 3.4
2018-Jan-25 13:29N 29°36' W 090°43'0 0.0
2018-Jan-24 19:59N 29°36' W 090°43'1 1.9
2018-Jan-24 19:30N 29°35' W 090°43'2 3.8
2018-Jan-24 19:00N 29°34' W 090°45'  
2018-Jan-20 20:50N 29°47' W 092°09'0 0.0
2018-Jan-20 20:29N 29°47' W 092°09'0 0.0
2018-Jan-20 19:59N 29°47' W 092°09'2 3.6
2018-Jan-20 19:30N 29°47' W 092°11'3 6.0
2018-Jan-20 18:58N 29°48' W 092°15'52 2.1
2018-Jan-19 17:30N 30°00' W 093°14'3 5.0
2018-Jan-19 16:57N 30°02' W 093°15'3 5.8
2018-Jan-19 16:30N 30°05' W 093°17'2 2.9
2018-Jan-19 15:58N 30°06' W 093°18'1 2.3
2018-Jan-19 15:30N 30°06' W 093°19'3 5.9
2018-Jan-19 15:00N 30°09' W 093°20'3 6.0
2018-Jan-19 14:30N 30°11' W 093°18'  

Dump ship's entire track history